createdAt,value
2019-02-06T00:01:02.535Z,28.57
2019-02-06T00:03:29.901Z,26.07
2019-02-06T00:05:57.551Z,26.47
2019-02-06T00:08:24.784Z,25.07
2019-02-06T00:10:52.131Z,24.53
2019-02-06T00:13:19.548Z,27.33
2019-02-06T00:15:57.714Z,24.50
2019-02-06T00:18:28.063Z,25.30
2019-02-06T00:20:55.358Z,25.93
2019-02-06T00:23:22.672Z,26.60
2019-02-06T00:25:50.005Z,22.87
2019-02-06T00:28:17.328Z,26.87
2019-02-06T00:30:45.049Z,26.17
2019-02-06T00:33:12.297Z,26.60
2019-02-06T00:35:39.611Z,28.10
2019-02-06T00:38:06.935Z,22.77
2019-02-06T00:40:34.192Z,26.23
2019-02-06T00:43:01.413Z,28.53
2019-02-06T00:45:31.231Z,28.70
2019-02-06T00:48:06.263Z,24.60
2019-02-06T00:50:33.611Z,24.23
2019-02-06T00:53:00.932Z,25.23
2019-02-06T00:55:28.215Z,24.30
2019-02-06T00:57:55.523Z,23.50
2019-02-06T01:00:22.907Z,27.77
2019-02-06T01:02:51.260Z,27.40
2019-02-06T01:05:19.360Z,24.07
2019-02-06T01:07:46.574Z,27.37
2019-02-06T01:10:14.552Z,23.00
2019-02-06T01:12:41.801Z,26.03
2019-02-06T01:15:10.077Z,25.33
2019-02-06T01:17:37.450Z,21.87
2019-02-06T01:20:05.641Z,25.33
2019-02-06T01:22:33.275Z,24.60
2019-02-06T01:25:00.630Z,25.30
2019-02-06T01:27:28.177Z,22.47
2019-02-06T01:29:55.472Z,24.50
2019-02-06T01:32:22.793Z,23.63
2019-02-06T01:34:50.117Z,27.97
2019-02-06T01:37:17.335Z,28.07
2019-02-06T01:39:44.556Z,29.27
2019-02-06T01:42:12.127Z,26.10
2019-02-06T01:44:39.354Z,25.67
2019-02-06T01:47:06.679Z,28.27
2019-02-06T01:49:34.079Z,28.27
2019-02-06T01:52:01.309Z,29.00
2019-02-06T01:54:28.531Z,26.87
2019-02-06T01:56:55.771Z,32.43
2019-02-06T01:59:23.314Z,26.73
2019-02-06T02:01:50.655Z,25.27
2019-02-06T02:04:17.879Z,27.50
2019-02-06T02:06:45.343Z,24.17
2019-02-06T02:09:26.546Z,26.17
2019-02-06T02:11:53.840Z,28.03
2019-02-06T02:14:32.035Z,32.63
2019-02-06T02:17:05.161Z,28.70
2019-02-06T02:19:40.236Z,31.37
2019-02-06T02:22:11.913Z,31.23
2019-02-06T02:24:39.095Z,31.00
2019-02-06T02:27:06.775Z,32.00
2019-02-06T02:29:34.304Z,33.57
2019-02-06T02:32:01.669Z,31.83
2019-02-06T02:34:29.372Z,31.37
2019-02-06T02:36:56.959Z,29.93
2019-02-06T02:39:24.196Z,30.77
2019-02-06T02:41:51.828Z,25.20
2019-02-06T02:44:19.804Z,24.20
2019-02-06T02:46:47.079Z,25.90
2019-02-06T02:49:14.421Z,25.53
2019-02-06T02:51:44.287Z,29.97
2019-02-06T02:54:11.052Z,24.50
2019-02-06T02:56:38.923Z,25.93
2019-02-06T02:59:06.292Z,26.77
2019-02-06T03:01:51.992Z,24.57
2019-02-06T03:04:38.241Z,25.83
2019-02-06T03:07:05.589Z,24.80
2019-02-06T03:09:34.865Z,29.93
2019-02-06T03:12:02.361Z,28.30
2019-02-06T03:14:29.727Z,27.13
2019-02-06T03:16:56.987Z,28.90
2019-02-06T03:19:24.236Z,28.80
2019-02-06T03:21:51.471Z,25.67
2019-02-06T03:24:18.753Z,27.20
2019-02-06T03:26:46.184Z,25.03
2019-02-06T03:29:13.587Z,28.03
2019-02-06T03:31:40.862Z,30.50
2019-02-06T03:34:08.244Z,29.80
2019-02-06T03:36:40.608Z,26.00
2019-02-06T03:39:07.418Z,26.07
2019-02-06T03:41:35.151Z,27.77
2019-02-06T03:44:02.696Z,24.97
2019-02-06T03:46:29.951Z,24.53
2019-02-06T03:48:57.661Z,24.80
2019-02-06T03:51:25.028Z,23.50
2019-02-06T03:53:52.441Z,25.97
2019-02-06T03:56:20.197Z,27.40
2019-02-06T03:58:47.427Z,27.90
2019-02-06T04:01:14.688Z,25.67
2019-02-06T04:03:42.333Z,31.30
2019-02-06T04:06:09.690Z,26.93
2019-02-06T04:08:37.030Z,28.27
2019-02-06T04:11:04.404Z,27.43
2019-02-06T04:13:31.762Z,27.43
2019-02-06T04:15:59.136Z,27.57
2019-02-06T04:18:26.596Z,22.93
2019-02-06T04:20:53.969Z,25.57
2019-02-06T04:23:21.203Z,25.13
2019-02-06T04:25:48.473Z,23.70
2019-02-06T04:28:15.707Z,23.33
2019-02-06T04:30:42.975Z,24.50
2019-02-06T04:33:10.225Z,23.43
2019-02-06T04:35:37.571Z,22.67
2019-02-06T04:38:04.830Z,24.70
2019-02-06T04:40:32.386Z,23.63
2019-02-06T04:42:59.624Z,25.03
2019-02-06T04:45:27.167Z,24.70
2019-02-06T04:47:54.816Z,25.13
2019-02-06T04:50:22.081Z,24.27
2019-02-06T04:52:49.418Z,23.50
2019-02-06T04:55:16.887Z,24.10
2019-02-06T04:57:46.415Z,24.17
2019-02-06T05:00:21.851Z,24.40
2019-02-06T05:02:49.083Z,24.30
2019-02-06T05:05:16.408Z,24.43
2019-02-06T05:07:43.765Z,26.93
2019-02-06T05:10:11.885Z,25.17
2019-02-06T05:12:39.209Z,24.60
2019-02-06T05:15:07.662Z,22.63
2019-02-06T05:17:35.279Z,19.10
2019-02-06T05:20:06.440Z,23.57
2019-02-06T05:22:33.781Z,27.83
2019-02-06T05:25:01.119Z,25.83
2019-02-06T05:27:28.449Z,23.17
2019-02-06T05:29:55.776Z,24.27
2019-02-06T05:32:23.340Z,24.17
2019-02-06T05:34:50.579Z,21.53
2019-02-06T05:37:18.040Z,23.43
2019-02-06T05:39:45.277Z,22.07
2019-02-06T05:42:12.534Z,22.63
2019-02-06T05:44:40.143Z,26.77
2019-02-06T05:47:07.515Z,20.27
2019-02-06T05:49:34.848Z,25.40
2019-02-06T05:52:02.185Z,24.63
2019-02-06T05:54:29.517Z,20.73
2019-02-06T05:56:56.864Z,24.87
2019-02-06T05:59:24.080Z,26.03
2019-02-06T06:01:51.327Z,27.93
2019-02-06T06:04:18.652Z,30.13
2019-02-06T06:06:46.356Z,30.07
2019-02-06T06:09:15.480Z,31.97
2019-02-06T06:11:42.832Z,30.63
2019-02-06T06:14:10.057Z,32.80
2019-02-06T06:16:37.583Z,34.17
2019-02-06T06:19:04.813Z,30.27
2019-02-06T06:21:32.166Z,37.93
2019-02-06T06:23:59.405Z,32.17
2019-02-06T06:26:26.752Z,35.50
2019-02-06T06:28:54.483Z,27.47
2019-02-06T06:31:21.736Z,34.97
2019-02-06T06:33:49.298Z,29.83
2019-02-06T06:36:17.756Z,35.43
2019-02-06T06:38:45.100Z,30.47
2019-02-06T06:41:12.673Z,29.67
2019-02-06T06:43:40.010Z,35.27
2019-02-06T06:46:07.421Z,30.17
2019-02-06T06:48:34.795Z,29.40
2019-02-06T06:51:02.487Z,33.13
2019-02-06T06:53:30.147Z,24.93
2019-02-06T06:55:57.381Z,30.03
2019-02-06T06:58:24.619Z,29.20
2019-02-06T07:00:51.848Z,30.60
2019-02-06T07:03:19.154Z,28.00
2019-02-06T07:05:46.739Z,30.30
2019-02-06T07:08:13.996Z,29.17
2019-02-06T07:10:41.325Z,26.80
2019-02-06T07:13:08.589Z,30.20
2019-02-06T07:15:35.911Z,32.03
2019-02-06T07:18:03.940Z,30.40
2019-02-06T07:20:31.168Z,31.47
2019-02-06T07:22:58.823Z,32.63
2019-02-06T07:25:26.162Z,29.77
2019-02-06T07:27:53.422Z,30.93
2019-02-06T07:30:23.283Z,29.90
2019-02-06T07:32:51.104Z,30.43
2019-02-06T07:35:18.345Z,27.13
2019-02-06T07:37:45.691Z,28.60
2019-02-06T07:40:13.765Z,32.57
2019-02-06T07:42:41.044Z,30.30
2019-02-06T07:45:09.755Z,29.30
2019-02-06T07:47:37.023Z,30.73
2019-02-06T07:50:06.351Z,33.90
2019-02-06T07:52:33.619Z,30.60
2019-02-06T07:55:00.873Z,28.00
2019-02-06T07:57:28.675Z,32.20
2019-02-06T07:59:56.043Z,28.80
2019-02-06T08:02:23.387Z,36.10
2019-02-06T08:04:50.711Z,31.33
2019-02-06T08:07:18.008Z,32.37
2019-02-06T08:09:45.312Z,31.33
2019-02-06T08:12:12.554Z,33.10
2019-02-06T08:14:39.881Z,30.27
2019-02-06T08:17:07.771Z,28.73
2019-02-06T08:19:35.003Z,31.77
2019-02-06T08:22:02.327Z,37.13
2019-02-06T08:24:29.938Z,43.03
2019-02-06T08:26:57.255Z,37.07
2019-02-06T08:29:24.855Z,43.60
2019-02-06T08:31:52.190Z,39.13
2019-02-06T08:34:19.719Z,41.73
2019-02-06T08:36:46.953Z,45.73
2019-02-06T08:39:14.276Z,38.90
2019-02-06T08:41:41.825Z,31.53
2019-02-06T08:44:09.056Z,32.37
2019-02-06T08:46:36.291Z,39.50
2019-02-06T08:49:03.926Z,33.13
2019-02-06T08:51:31.231Z,29.50
2019-02-06T08:53:58.474Z,30.13
2019-02-06T08:56:25.732Z,29.83
2019-02-06T08:58:53.631Z,27.97
2019-02-06T09:01:21.410Z,32.07
2019-02-06T09:03:48.763Z,31.17
2019-02-06T09:06:15.991Z,27.50
2019-02-06T09:08:43.239Z,29.87
2019-02-06T09:11:10.861Z,34.03
2019-02-06T09:13:38.500Z,28.30
2019-02-06T09:16:05.719Z,30.70
2019-02-06T09:18:32.971Z,29.23
2019-02-06T09:21:00.231Z,32.67
2019-02-06T09:23:27.763Z,30.63
2019-02-06T09:25:57.412Z,27.50
2019-02-06T09:28:24.147Z,30.27
2019-02-06T09:30:51.672Z,29.13
2019-02-06T09:33:18.979Z,32.10
2019-02-06T09:35:46.203Z,31.00
2019-02-06T09:38:13.761Z,34.33
2019-02-06T09:40:41.075Z,32.57
2019-02-06T09:43:08.292Z,32.20
2019-02-06T09:45:35.532Z,31.47
2019-02-06T09:48:03.456Z,31.67
2019-02-06T09:50:32.816Z,29.37
2019-02-06T09:53:00.135Z,28.37
2019-02-06T09:55:27.357Z,27.57
2019-02-06T09:57:54.580Z,31.47
2019-02-06T10:00:27.091Z,29.30
2019-02-06T10:02:54.403Z,28.07
2019-02-06T10:05:22.128Z,27.00
2019-02-06T10:07:49.449Z,26.97
2019-02-06T10:10:18.308Z,27.50
2019-02-06T10:12:45.544Z,26.53
2019-02-06T10:15:16.289Z,26.63
2019-02-06T10:17:43.507Z,26.13
2019-02-06T10:20:12.849Z,25.60
2019-02-06T10:22:40.181Z,24.53
2019-02-06T10:25:07.851Z,25.67
2019-02-06T10:27:35.069Z,26.50
2019-02-06T10:30:03.999Z,28.90
2019-02-06T10:32:31.361Z,24.33
2019-02-06T10:34:58.904Z,23.87
2019-02-06T10:37:29.061Z,27.57
2019-02-06T10:39:55.263Z,28.37
2019-02-06T10:42:22.380Z,25.77
2019-02-06T10:44:49.914Z,28.63
2019-02-06T10:47:17.233Z,29.40
2019-02-06T10:49:44.927Z,26.30
2019-02-06T10:52:12.143Z,27.77
2019-02-06T10:54:39.385Z,27.23
2019-02-06T10:57:10.005Z,27.57
2019-02-06T10:59:36.263Z,23.50
2019-02-06T11:02:03.869Z,24.93
2019-02-06T11:04:31.117Z,22.43
2019-02-06T11:06:58.439Z,23.77
2019-02-06T11:09:26.008Z,21.20
2019-02-06T11:11:53.328Z,22.37
2019-02-06T11:14:21.224Z,21.87
2019-02-06T11:16:48.820Z,22.90
2019-02-06T11:19:16.045Z,21.63
2019-02-06T11:21:43.364Z,21.77
2019-02-06T11:24:10.584Z,22.20
2019-02-06T11:26:37.813Z,20.70
2019-02-06T11:29:05.365Z,23.80
2019-02-06T11:31:32.581Z,21.97
2019-02-06T11:34:00.191Z,23.00
2019-02-06T11:36:27.408Z,25.70
2019-02-06T11:38:54.651Z,24.63
2019-02-06T11:41:22.231Z,24.37
2019-02-06T11:43:49.489Z,21.87
2019-02-06T11:46:16.804Z,23.10
2019-02-06T11:48:44.299Z,23.97
2019-02-06T11:51:11.940Z,23.37
2019-02-06T11:53:39.252Z,25.37
2019-02-06T11:56:06.472Z,23.67
2019-02-06T11:58:33.708Z,23.10
2019-02-06T12:01:09.814Z,24.10
2019-02-06T12:03:37.131Z,22.90
2019-02-06T12:06:04.432Z,22.57
2019-02-06T12:08:31.759Z,23.70
2019-02-06T12:10:59.195Z,24.30
2019-02-06T12:13:26.421Z,24.27
2019-02-06T12:15:53.647Z,27.57
2019-02-06T12:18:20.868Z,25.03
2019-02-06T12:20:48.401Z,23.90
2019-02-06T12:23:15.740Z,26.20
2019-02-06T12:25:43.455Z,21.97
2019-02-06T12:28:10.680Z,24.03
2019-02-06T12:30:38.507Z,23.87
2019-02-06T12:33:06.028Z,20.73
2019-02-06T12:35:33.255Z,24.67
2019-02-06T12:38:00.580Z,24.53
2019-02-06T12:40:28.007Z,25.97
2019-02-06T12:42:55.219Z,22.63
2019-02-06T12:45:22.579Z,22.23
2019-02-06T12:47:50.517Z,21.77
2019-02-06T12:50:17.767Z,18.63
2019-02-06T12:52:45.084Z,20.80
2019-02-06T12:55:19.615Z,21.13
2019-02-06T12:57:47.520Z,21.67
2019-02-06T13:00:23.726Z,18.23
2019-02-06T13:02:51.464Z,16.97
2019-02-06T13:05:18.734Z,16.67
2019-02-06T13:07:45.958Z,16.97
2019-02-06T13:10:13.872Z,13.73
2019-02-06T13:12:41.092Z,16.17
2019-02-06T13:15:10.584Z,17.87
2019-02-06T13:17:37.908Z,14.00
2019-02-06T13:20:09.325Z,12.83
2019-02-06T13:22:36.648Z,17.27
2019-02-06T13:25:04.863Z,14.53
2019-02-06T13:27:32.088Z,15.87
2019-02-06T13:29:59.399Z,16.37
2019-02-06T13:32:26.613Z,16.63
2019-02-06T13:34:53.924Z,14.80
2019-02-06T13:37:21.980Z,11.07
2019-02-06T13:39:49.229Z,11.13
2019-02-06T13:42:16.543Z,10.50
2019-02-06T13:44:44.141Z,9.17
2019-02-06T13:47:11.348Z,10.63
2019-02-06T13:49:38.678Z,9.30
2019-02-06T13:52:05.903Z,9.47
2019-02-06T13:54:33.299Z,9.03
2019-02-06T13:57:00.522Z,10.17
2019-02-06T13:59:27.839Z,11.00
2019-02-06T14:01:55.415Z,8.87
2019-02-06T14:04:22.644Z,10.23
2019-02-06T14:06:49.968Z,11.43
2019-02-06T14:09:22.836Z,9.90
2019-02-06T14:11:46.436Z,10.23
2019-02-06T14:14:14.044Z,10.70
2019-02-06T14:16:41.920Z,11.93
2019-02-06T14:19:09.445Z,10.70
2019-02-06T14:21:36.905Z,10.53
2019-02-06T14:24:15.275Z,12.13
2019-02-06T14:27:22.155Z,13.33
2019-02-06T14:30:27.036Z,15.00
2019-02-06T14:33:51.021Z,15.20
2019-02-06T14:37:01.304Z,17.30
2019-02-06T14:39:53.572Z,22.70
2019-02-06T14:42:39.544Z,19.57
2019-02-06T14:45:45.870Z,20.63
2019-02-06T14:48:44.859Z,21.27
2019-02-06T14:52:15.115Z,20.63
2019-02-06T14:55:14.388Z,21.33
2019-02-06T14:58:19.827Z,22.63
2019-02-06T15:01:28.252Z,19.87
2019-02-06T15:04:39.748Z,20.97
2019-02-06T15:07:33.085Z,22.83
2019-02-06T15:10:22.756Z,24.43
2019-02-06T15:13:32.916Z,22.40
2019-02-06T15:16:33.292Z,24.20
2019-02-06T15:19:39.101Z,20.30
2019-02-06T15:22:57.400Z,23.13
2019-02-06T15:25:45.588Z,21.93
2019-02-06T15:28:31.575Z,21.70
2019-02-06T15:31:43.119Z,22.67
2019-02-06T15:34:55.743Z,20.33
2019-02-06T15:38:06.604Z,20.23
2019-02-06T15:41:03.284Z,20.70
2019-02-06T15:44:10.583Z,23.40
2019-02-06T15:47:08.101Z,18.93
2019-02-06T15:50:00.319Z,20.17
2019-02-06T15:52:55.606Z,21.73
2019-02-06T15:56:17.768Z,20.80
2019-02-06T15:59:19.086Z,22.63
2019-02-06T16:02:24.678Z,19.60
2019-02-06T16:05:43.780Z,22.90
2019-02-06T16:08:42.999Z,17.87
2019-02-06T16:11:42.536Z,21.73
2019-02-06T16:14:18.667Z,23.53
2019-02-06T16:17:52.283Z,107.67
2019-02-06T16:21:11.228Z,51.70
2019-02-06T16:24:17.003Z,73.23
2019-02-06T16:27:31.928Z,51.67
2019-02-06T16:30:31.132Z,41.90
2019-02-06T16:33:39.651Z,28.13
2019-02-06T16:36:49.789Z,27.60
2019-02-06T16:39:51.264Z,27.70
2019-02-06T16:42:45.178Z,28.17
2019-02-06T16:45:32.241Z,36.87
2019-02-06T16:48:53.431Z,31.67
2019-02-06T16:51:35.047Z,29.17
2019-02-06T16:54:40.204Z,24.93
2019-02-06T16:57:51.901Z,20.03
2019-02-06T17:00:53.217Z,23.40
2019-02-06T17:03:55.693Z,23.50
2019-02-06T17:06:50.972Z,20.40
2019-02-06T17:10:05.973Z,27.20
2019-02-06T17:13:11.433Z,27.70
2019-02-06T17:15:59.367Z,20.63
2019-02-06T17:19:06.797Z,23.47
2019-02-06T17:22:18.216Z,20.73
2019-02-06T17:25:27.211Z,19.20
2019-02-06T17:28:20.400Z,20.10
2019-02-06T17:31:20.864Z,20.13
2019-02-06T17:34:45.280Z,19.20
2019-02-06T17:37:30.491Z,21.27
2019-02-06T17:40:28.012Z,21.53
2019-02-06T17:43:55.479Z,22.13
2019-02-06T17:46:44.719Z,21.50
2019-02-06T17:50:05.872Z,25.80
2019-02-06T17:53:29.191Z,28.13
2019-02-06T17:55:59.859Z,33.33
2019-02-06T17:58:31.335Z,26.17
2019-02-06T18:01:12.219Z,23.53
2019-02-06T18:03:43.457Z,23.83
2019-02-06T18:06:11.127Z,21.53
2019-02-06T18:08:39.534Z,21.60
2019-02-06T18:11:07.065Z,23.50
2019-02-06T18:13:35.189Z,24.00
2019-02-06T18:16:02.827Z,22.50
2019-02-06T18:18:30.048Z,27.27
2019-02-06T18:20:57.229Z,33.03
2019-02-06T18:23:24.446Z,37.47
2019-02-06T18:25:53.418Z,28.83
2019-02-06T18:28:21.039Z,28.63
2019-02-06T18:30:48.724Z,30.00
2019-02-06T18:33:18.770Z,26.80
2019-02-06T18:35:47.216Z,34.03
2019-02-06T18:38:14.655Z,36.27
2019-02-06T18:40:43.200Z,33.53
2019-02-06T18:43:11.126Z,38.80
2019-02-06T18:45:38.566Z,30.37
2019-02-06T18:48:07.511Z,32.07
2019-02-06T18:50:36.812Z,29.93
2019-02-06T18:53:05.597Z,30.10
2019-02-06T18:55:33.285Z,25.83
2019-02-06T18:58:00.616Z,27.67
2019-02-06T19:00:32.119Z,27.63
2019-02-06T19:02:59.732Z,23.40
2019-02-06T19:05:30.604Z,27.17
2019-02-06T19:07:58.076Z,30.33
2019-02-06T19:10:26.052Z,28.13
2019-02-06T19:12:53.950Z,33.60
2019-02-06T19:15:21.215Z,28.37
2019-02-06T19:17:49.219Z,30.30
2019-02-06T19:20:16.931Z,33.43
2019-02-06T19:22:44.547Z,41.60
2019-02-06T19:25:12.692Z,37.53
2019-02-06T19:27:40.026Z,34.00
2019-02-06T19:30:16.232Z,40.20
2019-02-06T19:32:44.512Z,45.63
2019-02-06T19:35:14.088Z,44.63
2019-02-06T19:37:41.693Z,41.83
2019-02-06T19:40:09.256Z,38.97
2019-02-06T19:42:36.600Z,42.03
2019-02-06T19:45:05.486Z,37.97
2019-02-06T19:47:33.135Z,40.87
2019-02-06T19:50:00.465Z,42.60
2019-02-06T19:52:28.480Z,43.10
2019-02-06T19:54:56.044Z,41.53
2019-02-06T19:57:25.940Z,42.63
2019-02-06T19:59:52.510Z,42.23
2019-02-06T20:02:19.884Z,49.13
2019-02-06T20:04:47.213Z,49.20
2019-02-06T20:07:14.549Z,46.87
2019-02-06T20:09:41.912Z,47.50
2019-02-06T20:12:09.307Z,42.80
2019-02-06T20:14:37.007Z,42.77
2019-02-06T20:17:04.551Z,49.87
2019-02-06T20:19:31.889Z,48.97
2019-02-06T20:21:59.219Z,47.77
2019-02-06T20:24:26.553Z,53.27
2019-02-06T20:26:53.891Z,51.50
2019-02-06T20:29:21.227Z,48.50
2019-02-06T20:31:48.642Z,45.03
2019-02-06T20:34:15.980Z,45.83
2019-02-06T20:36:43.736Z,45.13
2019-02-06T20:39:11.033Z,47.33
2019-02-06T20:41:38.435Z,43.53
2019-02-06T20:44:05.867Z,43.20
2019-02-06T20:46:33.247Z,57.67
2019-02-06T20:49:00.589Z,58.80
2019-02-06T20:51:28.084Z,50.90
2019-02-06T20:53:55.457Z,56.17
2019-02-06T20:56:22.734Z,59.93
2019-02-06T20:58:50.615Z,59.03
2019-02-06T21:01:18.286Z,61.10
2019-02-06T21:03:54.271Z,58.10
2019-02-06T21:06:21.887Z,58.17
2019-02-06T21:08:49.553Z,54.03
2019-02-06T21:11:16.889Z,52.80
2019-02-06T21:13:44.623Z,53.00
2019-02-06T21:16:11.846Z,54.07
2019-02-06T21:18:39.181Z,58.17
2019-02-06T21:21:06.496Z,52.83
2019-02-06T21:23:33.853Z,55.50
2019-02-06T21:26:01.459Z,51.47
2019-02-06T21:28:28.778Z,54.60
2019-02-06T21:30:56.546Z,51.37
2019-02-06T21:33:24.071Z,53.27
2019-02-06T21:35:51.393Z,52.43
2019-02-06T21:38:18.653Z,56.20
2019-02-06T21:40:45.993Z,56.03
2019-02-06T21:43:13.307Z,56.67
2019-02-06T21:45:40.882Z,61.53
2019-02-06T21:48:08.167Z,63.20
2019-02-06T21:50:35.810Z,62.13
2019-02-06T21:53:03.152Z,63.40
2019-02-06T21:55:30.489Z,55.20
2019-02-06T21:57:57.819Z,60.80
2019-02-06T22:00:39.271Z,58.77
2019-02-06T22:03:06.702Z,57.23
2019-02-06T22:05:35.075Z,81.60
2019-02-06T22:08:02.407Z,80.97
2019-02-06T22:10:29.948Z,75.13
2019-02-06T22:12:57.079Z,65.30
2019-02-06T22:15:25.823Z,50.87
2019-02-06T22:17:53.161Z,53.23
2019-02-06T22:20:20.503Z,52.63
2019-02-06T22:22:48.091Z,59.67
2019-02-06T22:25:15.419Z,71.93
2019-02-06T22:27:42.752Z,143.10
2019-02-06T22:30:14.539Z,83.43
2019-02-06T22:32:41.791Z,92.63
2019-02-06T22:35:11.902Z,74.20
2019-02-06T22:37:38.781Z,67.70
2019-02-06T22:40:09.150Z,63.33
2019-02-06T22:42:36.859Z,62.17
2019-02-06T22:45:06.220Z,62.33
2019-02-06T22:47:33.771Z,61.03
2019-02-06T22:50:01.483Z,56.70
2019-02-06T22:52:28.840Z,55.70
2019-02-06T22:54:56.481Z,59.47
2019-02-06T22:57:24.159Z,56.87
2019-02-06T22:59:51.819Z,55.30
2019-02-06T23:02:19.499Z,54.13
2019-02-06T23:04:46.826Z,54.90
2019-02-06T23:07:14.161Z,53.33
2019-02-06T23:09:41.505Z,54.03
2019-02-06T23:12:09.149Z,53.53
2019-02-06T23:14:36.380Z,51.67
2019-02-06T23:17:03.735Z,51.93
2019-02-06T23:19:30.967Z,60.13
2019-02-06T23:21:58.197Z,55.30
2019-02-06T23:24:25.427Z,54.60
2019-02-06T23:26:52.919Z,55.77
2019-02-06T23:29:20.556Z,54.27
2019-02-06T23:31:47.783Z,50.57
2019-02-06T23:34:15.020Z,54.10
2019-02-06T23:36:42.247Z,59.83
2019-02-06T23:39:16.621Z,58.23
2019-02-06T23:41:43.953Z,57.33
2019-02-06T23:44:11.583Z,52.50
2019-02-06T23:46:38.812Z,58.43
2019-02-06T23:49:06.149Z,62.80
2019-02-06T23:51:33.483Z,58.77
2019-02-06T23:54:00.715Z,61.40
2019-02-06T23:56:28.048Z,67.17
2019-02-06T23:58:58.145Z,56.73
